sensor_id;sensor_type;location;lat;lon;timestamp;P1;durP1;ratioP1;P2;durP2;ratioP2
57465;SDS011;67033;44.984;20.068;2023-04-19T00:00:26;25.70;;;21.95;;
57465;SDS011;67033;44.984;20.068;2023-04-19T00:02:52;25.33;;;19.13;;
57465;SDS011;67033;44.984;20.068;2023-04-19T00:05:18;22.20;;;17.52;;
57465;SDS011;67033;44.984;20.068;2023-04-19T00:07:46;20.73;;;15.98;;
57465;SDS011;67033;44.984;20.068;2023-04-19T00:10:12;21.17;;;15.85;;
57465;SDS011;67033;44.984;20.068;2023-04-19T00:12:38;19.77;;;14.63;;
57465;SDS011;67033;44.984;20.068;2023-04-19T00:15:04;21.35;;;16.08;;
57465;SDS011;67033;44.984;20.068;2023-04-19T00:17:31;21.20;;;16.05;;
57465;SDS011;67033;44.984;20.068;2023-04-19T00:19:58;19.50;;;16.67;;
57465;SDS011;67033;44.984;20.068;2023-04-19T00:22:24;25.23;;;15.93;;
57465;SDS011;67033;44.984;20.068;2023-04-19T00:24:51;20.92;;;15.98;;
57465;SDS011;67033;44.984;20.068;2023-04-19T00:27:17;21.80;;;16.52;;
57465;SDS011;67033;44.984;20.068;2023-04-19T00:29:43;21.00;;;16.65;;
57465;SDS011;67033;44.984;20.068;2023-04-19T00:32:09;23.27;;;17.05;;
57465;SDS011;67033;44.984;20.068;2023-04-19T00:34:35;21.40;;;17.02;;
57465;SDS011;67033;44.984;20.068;2023-04-19T00:37:01;21.08;;;17.02;;
57465;SDS011;67033;44.984;20.068;2023-04-19T00:39:30;21.38;;;16.83;;
57465;SDS011;67033;44.984;20.068;2023-04-19T00:41:57;25.90;;;18.25;;
57465;SDS011;67033;44.984;20.068;2023-04-19T00:44:23;21.67;;;17.15;;
57465;SDS011;67033;44.984;20.068;2023-04-19T00:46:49;22.00;;;16.85;;
57465;SDS011;67033;44.984;20.068;2023-04-19T00:49:16;20.98;;;17.98;;
57465;SDS011;67033;44.984;20.068;2023-04-19T00:51:42;21.50;;;17.15;;
57465;SDS011;67033;44.984;20.068;2023-04-19T00:54:08;22.25;;;17.92;;
57465;SDS011;67033;44.984;20.068;2023-04-19T00:56:35;24.52;;;18.02;;
57465;SDS011;67033;44.984;20.068;2023-04-19T00:59:01;23.35;;;18.20;;
57465;SDS011;67033;44.984;20.068;2023-04-19T01:01:27;19.00;;;16.67;;
57465;SDS011;67033;44.984;20.068;2023-04-19T01:03:53;22.85;;;16.98;;
57465;SDS011;67033;44.984;20.068;2023-04-19T01:06:19;28.83;;;16.77;;
57465;SDS011;67033;44.984;20.068;2023-04-19T01:08:46;23.95;;;17.52;;
57465;SDS011;67033;44.984;20.068;2023-04-19T01:11:12;22.83;;;18.05;;
57465;SDS011;67033;44.984;20.068;2023-04-19T01:13:38;25.17;;;17.33;;
57465;SDS011;67033;44.984;20.068;2023-04-19T01:16:05;24.45;;;17.88;;
57465;SDS011;67033;44.984;20.068;2023-04-19T01:18:31;25.42;;;17.02;;
57465;SDS011;67033;44.984;20.068;2023-04-19T01:21:02;25.25;;;18.55;;
57465;SDS011;67033;44.984;20.068;2023-04-19T01:23:28;22.50;;;18.20;;
57465;SDS011;67033;44.984;20.068;2023-04-19T01:25:54;25.10;;;17.45;;
57465;SDS011;67033;44.984;20.068;2023-04-19T01:28:20;24.38;;;18.48;;
57465;SDS011;67033;44.984;20.068;2023-04-19T01:30:46;24.77;;;18.40;;
57465;SDS011;67033;44.984;20.068;2023-04-19T01:33:15;23.13;;;18.13;;
57465;SDS011;67033;44.984;20.068;2023-04-19T01:35:41;23.05;;;17.45;;
57465;SDS011;67033;44.984;20.068;2023-04-19T01:38:07;26.70;;;18.70;;
57465;SDS011;67033;44.984;20.068;2023-04-19T01:40:33;20.50;;;16.88;;
57465;SDS011;67033;44.984;20.068;2023-04-19T01:42:59;26.02;;;17.90;;
57465;SDS011;67033;44.984;20.068;2023-04-19T01:45:25;23.52;;;17.65;;
57465;SDS011;67033;44.984;20.068;2023-04-19T01:47:50;27.55;;;19.30;;
57465;SDS011;67033;44.984;20.068;2023-04-19T01:50:16;42.10;;;19.70;;
57465;SDS011;67033;44.984;20.068;2023-04-19T01:52:42;45.70;;;21.20;;
57465;SDS011;67033;44.984;20.068;2023-04-19T01:55:08;37.53;;;20.63;;
57465;SDS011;67033;44.984;20.068;2023-04-19T01:57:34;52.20;;;20.42;;
57465;SDS011;67033;44.984;20.068;2023-04-19T02:00:00;50.90;;;20.77;;
57465;SDS011;67033;44.984;20.068;2023-04-19T02:02:26;41.95;;;21.85;;
57465;SDS011;67033;44.984;20.068;2023-04-19T02:04:52;43.10;;;21.50;;
57465;SDS011;67033;44.984;20.068;2023-04-19T02:07:18;33.38;;;20.55;;
57465;SDS011;67033;44.984;20.068;2023-04-19T02:09:44;34.63;;;20.23;;
57465;SDS011;67033;44.984;20.068;2023-04-19T02:12:10;36.25;;;20.75;;
57465;SDS011;67033;44.984;20.068;2023-04-19T02:14:36;36.28;;;21.55;;
57465;SDS011;67033;44.984;20.068;2023-04-19T02:17:02;32.35;;;19.48;;
57465;SDS011;67033;44.984;20.068;2023-04-19T02:19:28;42.38;;;20.00;;
57465;SDS011;67033;44.984;20.068;2023-04-19T02:21:54;29.92;;;20.83;;
57465;SDS011;67033;44.984;20.068;2023-04-19T02:24:22;29.35;;;20.27;;
57465;SDS011;67033;44.984;20.068;2023-04-19T02:26:49;37.28;;;20.75;;
57465;SDS011;67033;44.984;20.068;2023-04-19T02:29:15;33.42;;;22.27;;
57465;SDS011;67033;44.984;20.068;2023-04-19T02:31:41;26.92;;;20.70;;
57465;SDS011;67033;44.984;20.068;2023-04-19T02:34:09;30.23;;;21.00;;
57465;SDS011;67033;44.984;20.068;2023-04-19T02:36:35;27.02;;;21.30;;
57465;SDS011;67033;44.984;20.068;2023-04-19T02:39:00;30.35;;;21.95;;
57465;SDS011;67033;44.984;20.068;2023-04-19T02:41:26;31.75;;;21.15;;
57465;SDS011;67033;44.984;20.068;2023-04-19T02:43:52;23.15;;;18.92;;
57465;SDS011;67033;44.984;20.068;2023-04-19T02:46:18;24.38;;;20.10;;
57465;SDS011;67033;44.984;20.068;2023-04-19T02:48:44;25.50;;;19.30;;
57465;SDS011;67033;44.984;20.068;2023-04-19T02:51:14;22.98;;;19.40;;
57465;SDS011;67033;44.984;20.068;2023-04-19T02:53:41;21.58;;;19.08;;
57465;SDS011;67033;44.984;20.068;2023-04-19T02:56:07;25.42;;;19.52;;
57465;SDS011;67033;44.984;20.068;2023-04-19T02:58:33;29.48;;;19.45;;
57465;SDS011;67033;44.984;20.068;2023-04-19T03:00:59;34.67;;;18.58;;
57465;SDS011;67033;44.984;20.068;2023-04-19T03:03:25;21.48;;;17.27;;
57465;SDS011;67033;44.984;20.068;2023-04-19T03:05:51;22.73;;;16.65;;
57465;SDS011;67033;44.984;20.068;2023-04-19T03:08:17;24.45;;;17.00;;
57465;SDS011;67033;44.984;20.068;2023-04-19T03:10:43;20.55;;;16.80;;
57465;SDS011;67033;44.984;20.068;2023-04-19T03:13:09;19.02;;;14.88;;
57465;SDS011;67033;44.984;20.068;2023-04-19T03:15:35;15.90;;;13.65;;
57465;SDS011;67033;44.984;20.068;2023-04-19T03:18:01;15.07;;;13.43;;
57465;SDS011;67033;44.984;20.068;2023-04-19T03:20:27;15.55;;;12.48;;
57465;SDS011;67033;44.984;20.068;2023-04-19T03:22:52;13.85;;;11.75;;
57465;SDS011;67033;44.984;20.068;2023-04-19T03:25:18;18.33;;;12.50;;
57465;SDS011;67033;44.984;20.068;2023-04-19T03:27:45;17.15;;;11.27;;
57465;SDS011;67033;44.984;20.068;2023-04-19T03:30:12;13.27;;;11.88;;
57465;SDS011;67033;44.984;20.068;2023-04-19T03:32:38;12.75;;;10.98;;
57465;SDS011;67033;44.984;20.068;2023-04-19T03:35:04;15.25;;;10.65;;
57465;SDS011;67033;44.984;20.068;2023-04-19T03:37:31;17.00;;;10.95;;
57465;SDS011;67033;44.984;20.068;2023-04-19T03:39:57;11.02;;;9.85;;
57465;SDS011;67033;44.984;20.068;2023-04-19T03:42:23;16.85;;;10.77;;
57465;SDS011;67033;44.984;20.068;2023-04-19T03:44:49;14.75;;;10.23;;
57465;SDS011;67033;44.984;20.068;2023-04-19T03:47:15;12.05;;;9.77;;
57465;SDS011;67033;44.984;20.068;2023-04-19T03:49:42;13.57;;;9.50;;
57465;SDS011;67033;44.984;20.068;2023-04-19T03:52:08;12.88;;;9.70;;
57465;SDS011;67033;44.984;20.068;2023-04-19T03:54:34;10.70;;;8.48;;
57465;SDS011;67033;44.984;20.068;2023-04-19T03:57:00;9.40;;;7.75;;
57465;SDS011;67033;44.984;20.068;2023-04-19T03:59:26;12.73;;;9.02;;
57465;SDS011;67033;44.984;20.068;2023-04-19T04:01:52;15.15;;;9.40;;
57465;SDS011;67033;44.984;20.068;2023-04-19T04:04:18;18.00;;;9.15;;
57465;SDS011;67033;44.984;20.068;2023-04-19T04:06:44;19.88;;;9.25;;
57465;SDS011;67033;44.984;20.068;2023-04-19T04:09:10;20.13;;;9.23;;
57465;SDS011;67033;44.984;20.068;2023-04-19T04:11:36;14.20;;;9.50;;
57465;SDS011;67033;44.984;20.068;2023-04-19T04:14:02;13.23;;;9.80;;
57465;SDS011;67033;44.984;20.068;2023-04-19T04:16:28;15.75;;;9.32;;
57465;SDS011;67033;44.984;20.068;2023-04-19T04:18:54;17.48;;;9.77;;
57465;SDS011;67033;44.984;20.068;2023-04-19T04:21:20;14.75;;;9.93;;
57465;SDS011;67033;44.984;20.068;2023-04-19T04:23:48;12.07;;;10.00;;
57465;SDS011;67033;44.984;20.068;2023-04-19T04:26:14;16.80;;;9.88;;
57465;SDS011;67033;44.984;20.068;2023-04-19T04:28:40;14.10;;;10.38;;
57465;SDS011;67033;44.984;20.068;2023-04-19T04:31:06;15.45;;;10.05;;
57465;SDS011;67033;44.984;20.068;2023-04-19T04:33:34;17.13;;;10.32;;
57465;SDS011;67033;44.984;20.068;2023-04-19T04:36:00;13.45;;;9.65;;
57465;SDS011;67033;44.984;20.068;2023-04-19T04:38:26;11.57;;;9.95;;
57465;SDS011;67033;44.984;20.068;2023-04-19T04:40:53;21.60;;;10.30;;
57465;SDS011;67033;44.984;20.068;2023-04-19T04:43:23;21.20;;;11.10;;
57465;SDS011;67033;44.984;20.068;2023-04-19T04:45:53;19.60;;;10.38;;
57465;SDS011;67033;44.984;20.068;2023-04-19T04:48:21;15.25;;;9.65;;
57465;SDS011;67033;44.984;20.068;2023-04-19T04:50:48;14.95;;;9.90;;
57465;SDS011;67033;44.984;20.068;2023-04-19T04:53:14;17.33;;;10.10;;
57465;SDS011;67033;44.984;20.068;2023-04-19T04:55:40;12.65;;;8.63;;
57465;SDS011;67033;44.984;20.068;2023-04-19T04:58:06;10.48;;;6.55;;
57465;SDS011;67033;44.984;20.068;2023-04-19T05:00:31;8.38;;;6.20;;
57465;SDS011;67033;44.984;20.068;2023-04-19T05:02:58;11.73;;;6.35;;
57465;SDS011;67033;44.984;20.068;2023-04-19T05:05:24;17.80;;;8.82;;
57465;SDS011;67033;44.984;20.068;2023-04-19T05:07:50;16.50;;;9.48;;
57465;SDS011;67033;44.984;20.068;2023-04-19T05:10:16;11.95;;;8.48;;
57465;SDS011;67033;44.984;20.068;2023-04-19T05:12:42;12.48;;;8.05;;
57465;SDS011;67033;44.984;20.068;2023-04-19T05:15:07;22.85;;;8.32;;
57465;SDS011;67033;44.984;20.068;2023-04-19T05:17:33;11.55;;;6.28;;
57465;SDS011;67033;44.984;20.068;2023-04-19T05:19:59;12.70;;;6.57;;
57465;SDS011;67033;44.984;20.068;2023-04-19T05:22:26;14.07;;;5.30;;
57465;SDS011;67033;44.984;20.068;2023-04-19T05:24:51;14.88;;;4.90;;
57465;SDS011;67033;44.984;20.068;2023-04-19T05:27:17;8.23;;;4.75;;
57465;SDS011;67033;44.984;20.068;2023-04-19T05:29:43;8.73;;;3.70;;
57465;SDS011;67033;44.984;20.068;2023-04-19T05:32:10;8.38;;;4.32;;
57465;SDS011;67033;44.984;20.068;2023-04-19T05:34:36;7.57;;;4.78;;
57465;SDS011;67033;44.984;20.068;2023-04-19T05:37:02;7.70;;;5.25;;
57465;SDS011;67033;44.984;20.068;2023-04-19T05:39:28;10.23;;;3.78;;
57465;SDS011;67033;44.984;20.068;2023-04-19T05:41:54;10.60;;;3.78;;
57465;SDS011;67033;44.984;20.068;2023-04-19T05:44:21;9.10;;;4.15;;
57465;SDS011;67033;44.984;20.068;2023-04-19T05:46:47;5.43;;;4.13;;
57465;SDS011;67033;44.984;20.068;2023-04-19T05:49:13;4.95;;;3.47;;
57465;SDS011;67033;44.984;20.068;2023-04-19T05:51:39;7.95;;;4.20;;
57465;SDS011;67033;44.984;20.068;2023-04-19T05:54:05;12.43;;;4.30;;
57465;SDS011;67033;44.984;20.068;2023-04-19T05:56:31;6.38;;;4.22;;
57465;SDS011;67033;44.984;20.068;2023-04-19T05:58:57;5.03;;;4.45;;
57465;SDS011;67033;44.984;20.068;2023-04-19T06:01:25;9.77;;;4.38;;
57465;SDS011;67033;44.984;20.068;2023-04-19T06:03:51;6.57;;;4.95;;
57465;SDS011;67033;44.984;20.068;2023-04-19T06:06:20;9.13;;;5.20;;
57465;SDS011;67033;44.984;20.068;2023-04-19T06:08:47;7.07;;;4.78;;
57465;SDS011;67033;44.984;20.068;2023-04-19T06:11:14;9.70;;;4.65;;
57465;SDS011;67033;44.984;20.068;2023-04-19T06:13:40;7.30;;;4.53;;
57465;SDS011;67033;44.984;20.068;2023-04-19T06:16:06;11.70;;;5.53;;
57465;SDS011;67033;44.984;20.068;2023-04-19T06:18:32;11.52;;;4.97;;
57465;SDS011;67033;44.984;20.068;2023-04-19T06:20:58;18.52;;;5.47;;
57465;SDS011;67033;44.984;20.068;2023-04-19T06:23:24;17.75;;;6.13;;
57465;SDS011;67033;44.984;20.068;2023-04-19T06:25:51;16.40;;;6.05;;
57465;SDS011;67033;44.984;20.068;2023-04-19T06:28:17;8.15;;;4.53;;
57465;SDS011;67033;44.984;20.068;2023-04-19T06:30:43;9.85;;;4.45;;
57465;SDS011;67033;44.984;20.068;2023-04-19T06:33:09;10.25;;;4.38;;
57465;SDS011;67033;44.984;20.068;2023-04-19T06:35:35;11.88;;;4.07;;
57465;SDS011;67033;44.984;20.068;2023-04-19T06:38:01;6.63;;;4.80;;
57465;SDS011;67033;44.984;20.068;2023-04-19T06:40:27;7.82;;;4.82;;
57465;SDS011;67033;44.984;20.068;2023-04-19T06:42:54;9.23;;;4.78;;
57465;SDS011;67033;44.984;20.068;2023-04-19T06:45:20;7.18;;;4.70;;
57465;SDS011;67033;44.984;20.068;2023-04-19T06:47:46;6.82;;;4.07;;
57465;SDS011;67033;44.984;20.068;2023-04-19T06:50:12;5.60;;;3.72;;
57465;SDS011;67033;44.984;20.068;2023-04-19T06:52:38;9.38;;;3.88;;
57465;SDS011;67033;44.984;20.068;2023-04-19T06:55:05;4.53;;;3.90;;
57465;SDS011;67033;44.984;20.068;2023-04-19T06:57:31;6.63;;;4.65;;
57465;SDS011;67033;44.984;20.068;2023-04-19T06:59:58;7.18;;;4.18;;
57465;SDS011;67033;44.984;20.068;2023-04-19T07:02:24;6.25;;;4.45;;
57465;SDS011;67033;44.984;20.068;2023-04-19T07:04:50;13.02;;;5.38;;
57465;SDS011;67033;44.984;20.068;2023-04-19T07:07:16;7.72;;;4.85;;
57465;SDS011;67033;44.984;20.068;2023-04-19T07:09:42;8.88;;;4.32;;
57465;SDS011;67033;44.984;20.068;2023-04-19T07:12:08;7.25;;;4.97;;
57465;SDS011;67033;44.984;20.068;2023-04-19T07:14:34;6.50;;;4.53;;
57465;SDS011;67033;44.984;20.068;2023-04-19T07:17:00;8.40;;;4.63;;
57465;SDS011;67033;44.984;20.068;2023-04-19T07:19:30;8.90;;;5.10;;
57465;SDS011;67033;44.984;20.068;2023-04-19T07:21:56;7.88;;;6.10;;
57465;SDS011;67033;44.984;20.068;2023-04-19T07:24:22;9.45;;;6.00;;
57465;SDS011;67033;44.984;20.068;2023-04-19T07:26:48;7.25;;;5.00;;
57465;SDS011;67033;44.984;20.068;2023-04-19T07:29:13;9.57;;;5.55;;
57465;SDS011;67033;44.984;20.068;2023-04-19T07:31:39;11.55;;;5.32;;
57465;SDS011;67033;44.984;20.068;2023-04-19T07:34:06;10.90;;;5.00;;
57465;SDS011;67033;44.984;20.068;2023-04-19T07:36:32;8.30;;;5.10;;
57465;SDS011;67033;44.984;20.068;2023-04-19T07:38:59;10.07;;;5.15;;
57465;SDS011;67033;44.984;20.068;2023-04-19T07:41:25;8.98;;;4.88;;
57465;SDS011;67033;44.984;20.068;2023-04-19T07:43:51;9.55;;;4.68;;
57465;SDS011;67033;44.984;20.068;2023-04-19T07:46:17;9.95;;;5.10;;
57465;SDS011;67033;44.984;20.068;2023-04-19T07:48:43;11.23;;;4.65;;
57465;SDS011;67033;44.984;20.068;2023-04-19T07:51:15;17.42;;;5.60;;
57465;SDS011;67033;44.984;20.068;2023-04-19T07:53:42;7.80;;;5.10;;
57465;SDS011;67033;44.984;20.068;2023-04-19T07:56:08;8.43;;;4.80;;
57465;SDS011;67033;44.984;20.068;2023-04-19T07:58:35;7.93;;;4.38;;
57465;SDS011;67033;44.984;20.068;2023-04-19T08:01:02;10.77;;;4.93;;
57465;SDS011;67033;44.984;20.068;2023-04-19T08:03:29;7.22;;;5.30;;
57465;SDS011;67033;44.984;20.068;2023-04-19T08:05:59;6.60;;;4.35;;
57465;SDS011;67033;44.984;20.068;2023-04-19T08:08:26;9.00;;;5.20;;
57465;SDS011;67033;44.984;20.068;2023-04-19T08:10:52;8.02;;;4.85;;
57465;SDS011;67033;44.984;20.068;2023-04-19T08:13:21;10.85;;;4.22;;
57465;SDS011;67033;44.984;20.068;2023-04-19T08:15:47;7.93;;;4.70;;
57465;SDS011;67033;44.984;20.068;2023-04-19T08:18:13;7.78;;;4.70;;
57465;SDS011;67033;44.984;20.068;2023-04-19T08:20:39;10.32;;;5.50;;
57465;SDS011;67033;44.984;20.068;2023-04-19T08:23:06;14.48;;;4.50;;
57465;SDS011;67033;44.984;20.068;2023-04-19T08:25:33;7.50;;;4.30;;
57465;SDS011;67033;44.984;20.068;2023-04-19T08:28:00;8.02;;;4.82;;
57465;SDS011;67033;44.984;20.068;2023-04-19T08:30:26;7.40;;;4.88;;
57465;SDS011;67033;44.984;20.068;2023-04-19T08:32:52;8.35;;;4.65;;
57465;SDS011;67033;44.984;20.068;2023-04-19T08:35:19;6.85;;;4.40;;
57465;SDS011;67033;44.984;20.068;2023-04-19T08:37:45;6.75;;;4.50;;
57465;SDS011;67033;44.984;20.068;2023-04-19T08:40:12;13.93;;;5.15;;
57465;SDS011;67033;44.984;20.068;2023-04-19T08:42:39;6.90;;;5.35;;
57465;SDS011;67033;44.984;20.068;2023-04-19T08:45:05;10.32;;;5.80;;
57465;SDS011;67033;44.984;20.068;2023-04-19T08:47:32;10.88;;;5.43;;
57465;SDS011;67033;44.984;20.068;2023-04-19T08:49:59;18.45;;;6.45;;
57465;SDS011;67033;44.984;20.068;2023-04-19T08:52:26;15.65;;;5.45;;
57465;SDS011;67033;44.984;20.068;2023-04-19T08:54:55;7.28;;;4.95;;
57465;SDS011;67033;44.984;20.068;2023-04-19T08:57:22;7.53;;;5.60;;
57465;SDS011;67033;44.984;20.068;2023-04-19T08:59:48;7.07;;;5.40;;
57465;SDS011;67033;44.984;20.068;2023-04-19T09:02:20;5.22;;;4.07;;
57465;SDS011;67033;44.984;20.068;2023-04-19T09:04:46;6.80;;;4.82;;
57465;SDS011;67033;44.984;20.068;2023-04-19T09:07:25;9.40;;;4.07;;
57465;SDS011;67033;44.984;20.068;2023-04-19T09:10:07;7.67;;;4.17;;
57465;SDS011;67033;44.984;20.068;2023-04-19T09:12:34;15.85;;;5.13;;
57465;SDS011;67033;44.984;20.068;2023-04-19T09:15:01;5.80;;;3.75;;
57465;SDS011;67033;44.984;20.068;2023-04-19T09:17:32;7.80;;;3.72;;
57465;SDS011;67033;44.984;20.068;2023-04-19T09:19:59;7.30;;;3.70;;
57465;SDS011;67033;44.984;20.068;2023-04-19T09:22:26;6.70;;;3.50;;
57465;SDS011;67033;44.984;20.068;2023-04-19T09:24:52;7.97;;;3.72;;
57465;SDS011;67033;44.984;20.068;2023-04-19T09:27:24;10.45;;;4.10;;
57465;SDS011;67033;44.984;20.068;2023-04-19T09:29:58;14.50;;;4.50;;
57465;SDS011;67033;44.984;20.068;2023-04-19T09:32:26;9.68;;;4.55;;
57465;SDS011;67033;44.984;20.068;2023-04-19T09:34:53;8.25;;;4.30;;
57465;SDS011;67033;44.984;20.068;2023-04-19T09:37:23;7.93;;;3.53;;
57465;SDS011;67033;44.984;20.068;2023-04-19T09:39:49;6.03;;;4.30;;
57465;SDS011;67033;44.984;20.068;2023-04-19T09:42:16;10.80;;;4.57;;
57465;SDS011;67033;44.984;20.068;2023-04-19T09:44:56;9.30;;;4.55;;
57465;SDS011;67033;44.984;20.068;2023-04-19T09:47:26;6.55;;;4.50;;
57465;SDS011;67033;44.984;20.068;2023-04-19T09:52:31;10.30;;;5.30;;
57465;SDS011;67033;44.984;20.068;2023-04-19T09:55:02;11.38;;;5.13;;
57465;SDS011;67033;44.984;20.068;2023-04-19T09:57:30;7.47;;;4.55;;
57465;SDS011;67033;44.984;20.068;2023-04-19T09:59:59;9.30;;;5.22;;
57465;SDS011;67033;44.984;20.068;2023-04-19T10:02:29;12.23;;;4.88;;
57465;SDS011;67033;44.984;20.068;2023-04-19T10:04:57;7.13;;;5.00;;
57465;SDS011;67033;44.984;20.068;2023-04-19T10:07:24;7.85;;;5.22;;
57465;SDS011;67033;44.984;20.068;2023-04-19T10:09:50;8.93;;;5.65;;
57465;SDS011;67033;44.984;20.068;2023-04-19T10:12:24;8.90;;;4.93;;
57465;SDS011;67033;44.984;20.068;2023-04-19T10:14:54;14.00;;;5.40;;
57465;SDS011;67033;44.984;20.068;2023-04-19T10:17:23;9.35;;;4.55;;
57465;SDS011;67033;44.984;20.068;2023-04-19T10:19:51;11.70;;;5.32;;
57465;SDS011;67033;44.984;20.068;2023-04-19T10:22:22;10.07;;;6.05;;
57465;SDS011;67033;44.984;20.068;2023-04-19T10:25:07;7.65;;;5.40;;
57465;SDS011;67033;44.984;20.068;2023-04-19T10:27:35;10.65;;;5.28;;
57465;SDS011;67033;44.984;20.068;2023-04-19T10:30:02;8.38;;;6.10;;
57465;SDS011;67033;44.984;20.068;2023-04-19T10:32:39;5.97;;;3.78;;
57465;SDS011;67033;44.984;20.068;2023-04-19T10:35:06;6.38;;;2.80;;
57465;SDS011;67033;44.984;20.068;2023-04-19T10:38:05;7.25;;;2.92;;
57465;SDS011;67033;44.984;20.068;2023-04-19T10:43:17;7.38;;;2.75;;
57465;SDS011;67033;44.984;20.068;2023-04-19T10:45:43;6.13;;;3.10;;
57465;SDS011;67033;44.984;20.068;2023-04-19T10:56:15;3.17;;;2.72;;
57465;SDS011;67033;44.984;20.068;2023-04-19T11:01:36;5.07;;;3.10;;
57465;SDS011;67033;44.984;20.068;2023-04-19T11:04:04;4.47;;;2.70;;
57465;SDS011;67033;44.984;20.068;2023-04-19T11:06:34;6.65;;;2.92;;
57465;SDS011;67033;44.984;20.068;2023-04-19T11:09:01;6.22;;;3.25;;
57465;SDS011;67033;44.984;20.068;2023-04-19T11:11:35;3.67;;;2.78;;
57465;SDS011;67033;44.984;20.068;2023-04-19T11:14:02;9.65;;;2.95;;
57465;SDS011;67033;44.984;20.068;2023-04-19T11:16:29;10.25;;;3.08;;
57465;SDS011;67033;44.984;20.068;2023-04-19T11:18:55;3.88;;;2.60;;
57465;SDS011;67033;44.984;20.068;2023-04-19T11:21:21;4.80;;;3.05;;
57465;SDS011;67033;44.984;20.068;2023-04-19T11:23:48;4.75;;;3.00;;
57465;SDS011;67033;44.984;20.068;2023-04-19T11:26:29;12.88;;;3.20;;
57465;SDS011;67033;44.984;20.068;2023-04-19T11:28:55;9.18;;;3.55;;
57465;SDS011;67033;44.984;20.068;2023-04-19T11:31:21;10.90;;;5.00;;
57465;SDS011;67033;44.984;20.068;2023-04-19T11:33:48;8.15;;;4.15;;
57465;SDS011;67033;44.984;20.068;2023-04-19T11:36:13;6.82;;;3.38;;
57465;SDS011;67033;44.984;20.068;2023-04-19T11:38:40;8.15;;;4.03;;
57465;SDS011;67033;44.984;20.068;2023-04-19T11:41:06;6.65;;;4.43;;
57465;SDS011;67033;44.984;20.068;2023-04-19T11:43:32;11.45;;;6.15;;
57465;SDS011;67033;44.984;20.068;2023-04-19T11:46:04;15.82;;;6.22;;
57465;SDS011;67033;44.984;20.068;2023-04-19T11:48:35;17.92;;;7.78;;
57465;SDS011;67033;44.984;20.068;2023-04-19T11:51:01;11.18;;;5.68;;
57465;SDS011;67033;44.984;20.068;2023-04-19T11:53:28;14.15;;;8.38;;
57465;SDS011;67033;44.984;20.068;2023-04-19T11:55:56;15.35;;;9.35;;
57465;SDS011;67033;44.984;20.068;2023-04-19T11:58:43;9.05;;;5.78;;
57465;SDS011;67033;44.984;20.068;2023-04-19T12:01:13;8.85;;;6.78;;
57465;SDS011;67033;44.984;20.068;2023-04-19T12:03:46;13.80;;;7.10;;
57465;SDS011;67033;44.984;20.068;2023-04-19T12:06:17;8.80;;;5.55;;
57465;SDS011;67033;44.984;20.068;2023-04-19T12:08:48;11.23;;;6.20;;
57465;SDS011;67033;44.984;20.068;2023-04-19T12:11:15;13.10;;;8.63;;
57465;SDS011;67033;44.984;20.068;2023-04-19T12:14:06;12.25;;;9.45;;
57465;SDS011;67033;44.984;20.068;2023-04-19T12:16:36;14.05;;;8.30;;
57465;SDS011;67033;44.984;20.068;2023-04-19T12:19:12;11.77;;;7.90;;
57465;SDS011;67033;44.984;20.068;2023-04-19T12:21:41;20.90;;;8.82;;
57465;SDS011;67033;44.984;20.068;2023-04-19T12:24:07;10.82;;;7.97;;
57465;SDS011;67033;44.984;20.068;2023-04-19T12:26:33;13.82;;;8.05;;
57465;SDS011;67033;44.984;20.068;2023-04-19T12:29:00;12.38;;;10.02;;
57465;SDS011;67033;44.984;20.068;2023-04-19T12:31:27;21.40;;;11.52;;
57465;SDS011;67033;44.984;20.068;2023-04-19T12:33:58;9.05;;;6.15;;
57465;SDS011;67033;44.984;20.068;2023-04-19T12:36:24;8.45;;;4.50;;
57465;SDS011;67033;44.984;20.068;2023-04-19T12:38:50;8.82;;;5.82;;
57465;SDS011;67033;44.984;20.068;2023-04-19T12:41:16;9.93;;;5.40;;
57465;SDS011;67033;44.984;20.068;2023-04-19T12:43:42;7.05;;;5.05;;
57465;SDS011;67033;44.984;20.068;2023-04-19T12:46:08;5.32;;;4.45;;
57465;SDS011;67033;44.984;20.068;2023-04-19T12:48:34;4.95;;;4.43;;
57465;SDS011;67033;44.984;20.068;2023-04-19T12:51:00;6.15;;;4.30;;
57465;SDS011;67033;44.984;20.068;2023-04-19T12:53:26;7.47;;;4.55;;
57465;SDS011;67033;44.984;20.068;2023-04-19T12:55:52;6.88;;;4.60;;
57465;SDS011;67033;44.984;20.068;2023-04-19T12:58:18;6.65;;;4.60;;
57465;SDS011;67033;44.984;20.068;2023-04-19T13:00:45;6.90;;;4.60;;
57465;SDS011;67033;44.984;20.068;2023-04-19T13:03:11;8.80;;;5.00;;
57465;SDS011;67033;44.984;20.068;2023-04-19T13:05:37;9.10;;;4.97;;
57465;SDS011;67033;44.984;20.068;2023-04-19T13:08:04;5.13;;;4.63;;
57465;SDS011;67033;44.984;20.068;2023-04-19T13:10:30;9.48;;;6.30;;
57465;SDS011;67033;44.984;20.068;2023-04-19T13:12:56;10.38;;;6.80;;
57465;SDS011;67033;44.984;20.068;2023-04-19T13:15:23;16.58;;;8.85;;
57465;SDS011;67033;44.984;20.068;2023-04-19T13:17:49;16.20;;;9.02;;
57465;SDS011;67033;44.984;20.068;2023-04-19T13:20:16;21.15;;;9.70;;
57465;SDS011;67033;44.984;20.068;2023-04-19T13:22:44;11.13;;;8.30;;
57465;SDS011;67033;44.984;20.068;2023-04-19T13:25:10;8.35;;;6.75;;
57465;SDS011;67033;44.984;20.068;2023-04-19T13:59:44;12.73;;;8.05;;
57465;SDS011;67033;44.984;20.068;2023-04-19T14:02:10;11.60;;;8.50;;
57465;SDS011;67033;44.984;20.068;2023-04-19T14:04:36;12.48;;;8.10;;
57465;SDS011;67033;44.984;20.068;2023-04-19T14:07:02;9.63;;;8.02;;
57465;SDS011;67033;44.984;20.068;2023-04-19T14:09:27;13.02;;;8.43;;
57465;SDS011;67033;44.984;20.068;2023-04-19T14:11:53;9.40;;;6.60;;
57465;SDS011;67033;44.984;20.068;2023-04-19T14:14:19;9.48;;;6.30;;
57465;SDS011;67033;44.984;20.068;2023-04-19T14:16:45;10.77;;;7.32;;
57465;SDS011;67033;44.984;20.068;2023-04-19T14:19:11;8.98;;;7.07;;
57465;SDS011;67033;44.984;20.068;2023-04-19T14:21:37;9.80;;;6.45;;
57465;SDS011;67033;44.984;20.068;2023-04-19T14:24:03;8.55;;;6.45;;
57465;SDS011;67033;44.984;20.068;2023-04-19T14:26:29;11.38;;;6.53;;
57465;SDS011;67033;44.984;20.068;2023-04-19T14:28:55;14.55;;;5.93;;
57465;SDS011;67033;44.984;20.068;2023-04-19T14:31:21;12.18;;;6.50;;
57465;SDS011;67033;44.984;20.068;2023-04-19T14:33:47;9.75;;;6.57;;
57465;SDS011;67033;44.984;20.068;2023-04-19T14:36:13;9.68;;;6.47;;
57465;SDS011;67033;44.984;20.068;2023-04-19T14:38:39;8.02;;;5.95;;
57465;SDS011;67033;44.984;20.068;2023-04-19T14:41:05;11.02;;;5.82;;
57465;SDS011;67033;44.984;20.068;2023-04-19T14:43:31;9.65;;;5.68;;
57465;SDS011;67033;44.984;20.068;2023-04-19T14:45:57;9.00;;;5.22;;
57465;SDS011;67033;44.984;20.068;2023-04-19T14:48:23;11.32;;;7.28;;
57465;SDS011;67033;44.984;20.068;2023-04-19T14:50:49;13.70;;;5.10;;
57465;SDS011;67033;44.984;20.068;2023-04-19T14:53:15;9.05;;;5.15;;
57465;SDS011;67033;44.984;20.068;2023-04-19T14:55:41;6.43;;;5.43;;
57465;SDS011;67033;44.984;20.068;2023-04-19T14:58:07;9.68;;;6.07;;
57465;SDS011;67033;44.984;20.068;2023-04-19T15:00:33;10.25;;;7.45;;
57465;SDS011;67033;44.984;20.068;2023-04-19T15:02:59;13.00;;;8.07;;
57465;SDS011;67033;44.984;20.068;2023-04-19T15:05:26;12.07;;;8.68;;
57465;SDS011;67033;44.984;20.068;2023-04-19T15:07:52;15.80;;;10.73;;
57465;SDS011;67033;44.984;20.068;2023-04-19T15:10:18;21.33;;;10.90;;